sensor_id;sensor_type;location;lat;lon;timestamp;pressure;altitude;pressure_sealevel;temperature;humidity
69402;BME280;56589;51.992;5.924;2023-07-13T00:01:53;100856.91;;;16.08;64.53
69402;BME280;56589;51.992;5.924;2023-07-13T00:04:21;100846.69;;;16.03;64.42
69402;BME280;56589;51.992;5.924;2023-07-13T00:06:49;100851.31;;;16.01;64.35
69402;BME280;56589;51.992;5.924;2023-07-13T00:09:16;100850.47;;;16.01;64.61
69402;BME280;56589;51.992;5.924;2023-07-13T00:11:44;100842.75;;;15.98;64.37
69402;BME280;56589;51.992;5.924;2023-07-13T00:14:18;100853.50;;;15.96;64.10
69402;BME280;56589;51.992;5.924;2023-07-13T00:16:45;100849.19;;;15.95;64.34
69402;BME280;56589;51.992;5.924;2023-07-13T00:19:12;100849.28;;;15.93;64.35
69402;BME280;56589;51.992;5.924;2023-07-13T00:21:39;100855.31;;;15.96;64.66
69402;BME280;56589;51.992;5.924;2023-07-13T00:24:05;100858.66;;;15.98;64.36
69402;BME280;56589;51.992;5.924;2023-07-13T00:26:32;100859.09;;;16.03;64.51
69402;BME280;56589;51.992;5.924;2023-07-13T00:28:59;100860.53;;;16.07;64.72
69402;BME280;56589;51.992;5.924;2023-07-13T00:31:28;100855.66;;;16.12;64.76
69402;BME280;56589;51.992;5.924;2023-07-13T00:33:54;100849.41;;;16.13;64.43
69402;BME280;56589;51.992;5.924;2023-07-13T00:36:20;100858.19;;;16.13;64.01
69402;BME280;56589;51.992;5.924;2023-07-13T00:38:47;100854.13;;;16.09;64.13
69402;BME280;56589;51.992;5.924;2023-07-13T00:41:13;100857.00;;;16.06;64.00
69402;BME280;56589;51.992;5.924;2023-07-13T00:43:40;100867.88;;;16.03;63.84
69402;BME280;56589;51.992;5.924;2023-07-13T00:46:22;100867.28;;;16.00;64.35
69402;BME280;56589;51.992;5.924;2023-07-13T00:48:54;100857.81;;;15.97;64.17
69402;BME280;56589;51.992;5.924;2023-07-13T00:51:29;100859.03;;;15.93;64.49
69402;BME280;56589;51.992;5.924;2023-07-13T00:54:00;100862.94;;;15.89;64.24
69402;BME280;56589;51.992;5.924;2023-07-13T00:56:30;100856.22;;;15.85;64.02
69402;BME280;56589;51.992;5.924;2023-07-13T00:58:59;100856.50;;;15.82;64.41
69402;BME280;56589;51.992;5.924;2023-07-13T01:01:28;100862.03;;;15.79;64.05
69402;BME280;56589;51.992;5.924;2023-07-13T01:03:57;100861.44;;;15.75;64.20
69402;BME280;56589;51.992;5.924;2023-07-13T01:06:23;100849.19;;;15.74;64.67
69402;BME280;56589;51.992;5.924;2023-07-13T01:08:49;100847.78;;;15.70;64.72
69402;BME280;56589;51.992;5.924;2023-07-13T01:11:19;100859.56;;;15.66;64.83
69402;BME280;56589;51.992;5.924;2023-07-13T01:13:46;100863.31;;;15.63;64.92
69402;BME280;56589;51.992;5.924;2023-07-13T01:16:15;100863.41;;;15.62;64.95
69402;BME280;56589;51.992;5.924;2023-07-13T01:18:49;100865.50;;;15.58;64.62
69402;BME280;56589;51.992;5.924;2023-07-13T01:21:18;100862.94;;;15.57;65.08
69402;BME280;56589;51.992;5.924;2023-07-13T01:23:44;100850.69;;;15.56;65.16
69402;BME280;56589;51.992;5.924;2023-07-13T01:26:11;100856.13;;;15.54;64.95
69402;BME280;56589;51.992;5.924;2023-07-13T01:28:37;100854.59;;;15.52;64.89
69402;BME280;56589;51.992;5.924;2023-07-13T01:31:04;100863.47;;;15.51;64.73
69402;BME280;56589;51.992;5.924;2023-07-13T01:33:30;100863.75;;;15.48;64.88
69402;BME280;56589;51.992;5.924;2023-07-13T01:35:56;100862.06;;;15.47;65.12
69402;BME280;56589;51.992;5.924;2023-07-13T01:38:25;100862.19;;;15.45;65.32
69402;BME280;56589;51.992;5.924;2023-07-13T01:40:52;100859.66;;;15.44;65.37
69402;BME280;56589;51.992;5.924;2023-07-13T01:43:19;100862.44;;;15.42;65.45
69402;BME280;56589;51.992;5.924;2023-07-13T01:45:45;100863.41;;;15.41;65.00
69402;BME280;56589;51.992;5.924;2023-07-13T01:48:12;100852.97;;;15.39;65.32
69402;BME280;56589;51.992;5.924;2023-07-13T01:50:39;100856.56;;;15.38;65.35
69402;BME280;56589;51.992;5.924;2023-07-13T01:53:05;100852.97;;;15.39;65.21
69402;BME280;56589;51.992;5.924;2023-07-13T01:55:34;100852.84;;;15.41;65.75
69402;BME280;56589;51.992;5.924;2023-07-13T01:58:01;100853.66;;;15.42;65.54
69402;BME280;56589;51.992;5.924;2023-07-13T02:00:27;100851.16;;;15.40;65.35
69402;BME280;56589;51.992;5.924;2023-07-13T02:02:53;100844.28;;;15.37;65.60
69402;BME280;56589;51.992;5.924;2023-07-13T02:05:19;100853.34;;;15.35;65.86
69402;BME280;56589;51.992;5.924;2023-07-13T02:07:45;100851.06;;;15.30;65.60
69402;BME280;56589;51.992;5.924;2023-07-13T02:10:12;100859.28;;;15.27;65.63
69402;BME280;56589;51.992;5.924;2023-07-13T02:12:41;100863.97;;;15.24;66.11
69402;BME280;56589;51.992;5.924;2023-07-13T02:15:09;100869.53;;;15.21;66.06
69402;BME280;56589;51.992;5.924;2023-07-13T02:17:36;100857.38;;;15.18;65.74
69402;BME280;56589;51.992;5.924;2023-07-13T02:20:03;100856.66;;;15.16;65.99
69402;BME280;56589;51.992;5.924;2023-07-13T02:22:32;100860.53;;;15.12;66.31
69402;BME280;56589;51.992;5.924;2023-07-13T02:24:58;100860.66;;;15.10;66.27
69402;BME280;56589;51.992;5.924;2023-07-13T02:27:25;100859.94;;;15.08;66.21
69402;BME280;56589;51.992;5.924;2023-07-13T02:29:53;100871.47;;;15.07;66.63
69402;BME280;56589;51.992;5.924;2023-07-13T02:32:19;100873.41;;;15.05;66.40
69402;BME280;56589;51.992;5.924;2023-07-13T02:34:45;100864.88;;;15.02;66.69
69402;BME280;56589;51.992;5.924;2023-07-13T02:37:11;100869.44;;;15.00;66.52
69402;BME280;56589;51.992;5.924;2023-07-13T02:39:37;100872.38;;;14.97;66.68
69402;BME280;56589;51.992;5.924;2023-07-13T02:42:04;100881.38;;;14.94;66.81
69402;BME280;56589;51.992;5.924;2023-07-13T02:44:31;100876.34;;;14.91;66.78
69402;BME280;56589;51.992;5.924;2023-07-13T02:47:00;100872.97;;;14.89;66.92
69402;BME280;56589;51.992;5.924;2023-07-13T02:49:26;100872.25;;;14.87;67.09
69402;BME280;56589;51.992;5.924;2023-07-13T02:51:52;100869.88;;;14.84;67.03
69402;BME280;56589;51.992;5.924;2023-07-13T02:54:18;100872.50;;;14.84;67.70
69402;BME280;56589;51.992;5.924;2023-07-13T02:56:44;100869.13;;;14.82;67.52
69402;BME280;56589;51.992;5.924;2023-07-13T02:59:10;100878.28;;;14.78;67.87
69402;BME280;56589;51.992;5.924;2023-07-13T03:01:36;100878.41;;;14.76;68.04
69402;BME280;56589;51.992;5.924;2023-07-13T03:04:05;100879.38;;;14.75;67.76
69402;BME280;56589;51.992;5.924;2023-07-13T03:06:31;100880.34;;;14.74;67.85
69402;BME280;56589;51.992;5.924;2023-07-13T03:08:58;100881.44;;;14.72;68.15
69402;BME280;56589;51.992;5.924;2023-07-13T03:11:25;100884.16;;;14.70;68.30
69402;BME280;56589;51.992;5.924;2023-07-13T03:13:51;100882.75;;;14.66;68.42
69402;BME280;56589;51.992;5.924;2023-07-13T03:16:18;100880.22;;;14.65;68.47
69402;BME280;56589;51.992;5.924;2023-07-13T03:18:44;100897.03;;;14.64;68.64
69402;BME280;56589;51.992;5.924;2023-07-13T03:21:14;100890.06;;;14.63;68.79
69402;BME280;56589;51.992;5.924;2023-07-13T03:23:41;100897.16;;;14.62;68.84
69402;BME280;56589;51.992;5.924;2023-07-13T03:26:09;100904.22;;;14.62;68.61
69402;BME280;56589;51.992;5.924;2023-07-13T03:28:36;100905.09;;;14.62;68.73
69402;BME280;56589;51.992;5.924;2023-07-13T03:31:06;100907.84;;;14.61;68.90
69402;BME280;56589;51.992;5.924;2023-07-13T03:33:34;100904.34;;;14.60;69.13
69402;BME280;56589;51.992;5.924;2023-07-13T03:36:01;100904.44;;;14.58;68.82
69402;BME280;56589;51.992;5.924;2023-07-13T03:38:31;100897.63;;;14.56;69.13
69402;BME280;56589;51.992;5.924;2023-07-13T03:40:57;100899.53;;;14.54;69.53
69402;BME280;56589;51.992;5.924;2023-07-13T03:43:24;100899.78;;;14.51;69.43
69402;BME280;56589;51.992;5.924;2023-07-13T03:45:50;100901.00;;;14.47;69.46
69402;BME280;56589;51.992;5.924;2023-07-13T03:48:16;100901.94;;;14.46;69.83
69402;BME280;56589;51.992;5.924;2023-07-13T03:50:42;100908.94;;;14.47;69.96
69402;BME280;56589;51.992;5.924;2023-07-13T03:53:09;100918.53;;;14.48;70.20
69402;BME280;56589;51.992;5.924;2023-07-13T03:55:37;100927.28;;;14.48;70.29
69402;BME280;56589;51.992;5.924;2023-07-13T03:58:25;100925.63;;;14.47;70.09
69402;BME280;56589;51.992;5.924;2023-07-13T04:00:54;100916.84;;;14.47;70.44
69402;BME280;56589;51.992;5.924;2023-07-13T04:03:21;100921.25;;;14.46;70.19
69402;BME280;56589;51.992;5.924;2023-07-13T04:05:47;100921.03;;;14.49;70.51
69402;BME280;56589;51.992;5.924;2023-07-13T04:08:13;100914.78;;;14.50;70.44
69402;BME280;56589;51.992;5.924;2023-07-13T04:10:44;100922.50;;;14.53;70.75
69402;BME280;56589;51.992;5.924;2023-07-13T04:13:10;100923.06;;;14.57;70.68
69402;BME280;56589;51.992;5.924;2023-07-13T04:15:36;100927.28;;;14.59;70.29
69402;BME280;56589;51.992;5.924;2023-07-13T04:18:04;100924.44;;;14.63;70.61
69402;BME280;56589;51.992;5.924;2023-07-13T04:20:30;100927.41;;;14.69;70.67
69402;BME280;56589;51.992;5.924;2023-07-13T04:22:56;100933.91;;;14.76;71.11
69402;BME280;56589;51.992;5.924;2023-07-13T04:25:22;100920.81;;;14.86;70.85
69402;BME280;56589;51.992;5.924;2023-07-13T04:27:51;100931.38;;;14.97;70.74
69402;BME280;56589;51.992;5.924;2023-07-13T04:30:17;100931.59;;;15.05;70.62
69402;BME280;56589;51.992;5.924;2023-07-13T04:32:43;100938.66;;;15.16;70.35
69402;BME280;56589;51.992;5.924;2023-07-13T04:35:09;100929.72;;;15.28;70.62
69402;BME280;56589;51.992;5.924;2023-07-13T04:37:36;100934.91;;;15.51;70.37
69402;BME280;56589;51.992;5.924;2023-07-13T04:40:02;100932.69;;;15.78;70.47
69402;BME280;56589;51.992;5.924;2023-07-13T04:42:29;100928.81;;;16.03;69.99
69402;BME280;56589;51.992;5.924;2023-07-13T04:44:58;100937.53;;;16.15;69.29
69402;BME280;56589;51.992;5.924;2023-07-13T04:47:24;100937.84;;;16.22;68.81
69402;BME280;56589;51.992;5.924;2023-07-13T04:49:50;100946.22;;;16.27;69.07
69402;BME280;56589;51.992;5.924;2023-07-13T04:52:16;100938.28;;;16.27;68.90
69402;BME280;56589;51.992;5.924;2023-07-13T04:54:42;100945.84;;;16.31;69.01
69402;BME280;56589;51.992;5.924;2023-07-13T04:57:08;100941.56;;;16.40;68.79
69402;BME280;56589;51.992;5.924;2023-07-13T04:59:34;100947.16;;;16.46;68.58
69402;BME280;56589;51.992;5.924;2023-07-13T05:02:03;100944.81;;;16.53;68.50
69402;BME280;56589;51.992;5.924;2023-07-13T05:04:30;100952.25;;;16.59;68.61
69402;BME280;56589;51.992;5.924;2023-07-13T05:06:56;100951.72;;;16.65;68.30
69402;BME280;56589;51.992;5.924;2023-07-13T05:09:22;100956.50;;;16.71;67.79
69402;BME280;56589;51.992;5.924;2023-07-13T05:11:48;100957.19;;;16.73;67.98
69402;BME280;56589;51.992;5.924;2023-07-13T05:14:15;100964.91;;;16.77;68.14
69402;BME280;56589;51.992;5.924;2023-07-13T05:16:41;100968.16;;;16.80;67.87
69402;BME280;56589;51.992;5.924;2023-07-13T05:19:10;100964.22;;;16.84;67.68
69402;BME280;56589;51.992;5.924;2023-07-13T05:21:37;100970.38;;;16.85;67.57
69402;BME280;56589;51.992;5.924;2023-07-13T05:24:03;100967.03;;;16.83;67.70
69402;BME280;56589;51.992;5.924;2023-07-13T05:26:29;100980.53;;;16.80;67.27
69402;BME280;56589;51.992;5.924;2023-07-13T05:28:55;100990.44;;;16.78;67.92
69402;BME280;56589;51.992;5.924;2023-07-13T05:31:21;100980.97;;;16.75;67.55
69402;BME280;56589;51.992;5.924;2023-07-13T05:33:47;100984.44;;;16.76;67.50
69402;BME280;56589;51.992;5.924;2023-07-13T05:36:16;100981.22;;;16.72;67.83
69402;BME280;56589;51.992;5.924;2023-07-13T05:38:42;100981.78;;;16.76;67.70
69402;BME280;56589;51.992;5.924;2023-07-13T05:41:08;100990.31;;;16.79;67.75
69402;BME280;56589;51.992;5.924;2023-07-13T05:43:34;100984.88;;;16.81;67.87
69402;BME280;56589;51.992;5.924;2023-07-13T05:46:00;100983.53;;;16.86;67.82
69402;BME280;56589;51.992;5.924;2023-07-13T05:48:26;100994.16;;;16.96;68.19
69402;BME280;56589;51.992;5.924;2023-07-13T05:50:52;100991.63;;;16.94;67.91
69402;BME280;56589;51.992;5.924;2023-07-13T05:53:21;100991.78;;;16.93;68.08
69402;BME280;56589;51.992;5.924;2023-07-13T05:55:47;100998.75;;;16.94;68.28
69402;BME280;56589;51.992;5.924;2023-07-13T05:58:14;101002.69;;;16.99;68.11
69402;BME280;56589;51.992;5.924;2023-07-13T06:00:40;101002.97;;;17.06;67.93
69402;BME280;56589;51.992;5.924;2023-07-13T06:03:06;101005.25;;;17.11;68.03
69402;BME280;56589;51.992;5.924;2023-07-13T06:05:32;101004.56;;;17.18;67.77
69402;BME280;56589;51.992;5.924;2023-07-13T06:07:59;101012.97;;;17.23;67.74
69402;BME280;56589;51.992;5.924;2023-07-13T06:10:28;101015.19;;;17.28;67.94
69402;BME280;56589;51.992;5.924;2023-07-13T06:12:54;101019.84;;;17.36;67.88
69402;BME280;56589;51.992;5.924;2023-07-13T06:15:20;101023.72;;;17.41;67.73
69402;BME280;56589;51.992;5.924;2023-07-13T06:17:46;101021.41;;;17.48;67.54
69402;BME280;56589;51.992;5.924;2023-07-13T06:20:13;101021.41;;;17.48;67.38
69402;BME280;56589;51.992;5.924;2023-07-13T06:22:39;101023.06;;;17.49;67.28
69402;BME280;56589;51.992;5.924;2023-07-13T06:25:06;101026.41;;;17.51;67.69
69402;BME280;56589;51.992;5.924;2023-07-13T06:27:35;101022.53;;;17.55;67.78
69402;BME280;56589;51.992;5.924;2023-07-13T06:30:01;101022.81;;;17.62;68.08
69402;BME280;56589;51.992;5.924;2023-07-13T06:32:27;101029.25;;;17.69;67.87
69402;BME280;56589;51.992;5.924;2023-07-13T06:34:53;101031.94;;;17.78;67.29
69402;BME280;56589;51.992;5.924;2023-07-13T06:37:19;101032.63;;;17.81;67.45
69402;BME280;56589;51.992;5.924;2023-07-13T06:39:45;101038.22;;;17.87;67.33
69402;BME280;56589;51.992;5.924;2023-07-13T06:42:11;101039.63;;;17.91;67.29
69402;BME280;56589;51.992;5.924;2023-07-13T06:44:40;101043.41;;;17.98;68.20
69402;BME280;56589;51.992;5.924;2023-07-13T06:47:06;101036.53;;;18.25;67.90
69402;BME280;56589;51.992;5.924;2023-07-13T06:49:32;101040.28;;;18.42;66.79
69402;BME280;56589;51.992;5.924;2023-07-13T06:51:58;101043.78;;;18.52;67.20
69402;BME280;56589;51.992;5.924;2023-07-13T06:54:24;101042.09;;;18.61;66.57
69402;BME280;56589;51.992;5.924;2023-07-13T06:56:50;101039.13;;;18.73;66.83
69402;BME280;56589;51.992;5.924;2023-07-13T06:59:16;101042.44;;;18.85;66.25
69402;BME280;56589;51.992;5.924;2023-07-13T07:01:45;101047.31;;;18.90;66.20
69402;BME280;56589;51.992;5.924;2023-07-13T07:04:11;101055.16;;;18.91;65.98
69402;BME280;56589;51.992;5.924;2023-07-13T07:06:37;101057.22;;;18.97;65.51
69402;BME280;56589;51.992;5.924;2023-07-13T07:09:03;101051.91;;;18.97;65.24
69402;BME280;56589;51.992;5.924;2023-07-13T07:11:29;101054.31;;;18.91;65.55
69402;BME280;56589;51.992;5.924;2023-07-13T07:13:55;101062.31;;;18.91;66.05
69402;BME280;56589;51.992;5.924;2023-07-13T07:16:21;101051.22;;;18.95;65.51
69402;BME280;56589;51.992;5.924;2023-07-13T07:18:52;101054.84;;;18.94;65.51
69402;BME280;56589;51.992;5.924;2023-07-13T07:21:18;101062.84;;;18.94;65.83
69402;BME280;56589;51.992;5.924;2023-07-13T07:23:44;101059.75;;;18.99;65.46
69402;BME280;56589;51.992;5.924;2023-07-13T07:26:11;101062.81;;;19.04;65.12
69402;BME280;56589;51.992;5.924;2023-07-13T07:28:37;101068.53;;;19.09;65.23
69402;BME280;56589;51.992;5.924;2023-07-13T07:31:03;101063.63;;;19.14;65.09
69402;BME280;56589;51.992;5.924;2023-07-13T07:33:29;101067.94;;;19.15;64.94
69402;BME280;56589;51.992;5.924;2023-07-13T07:35:58;101063.63;;;19.14;65.28
69402;BME280;56589;51.992;5.924;2023-07-13T07:38:24;101063.16;;;19.19;65.15
69402;BME280;56589;51.992;5.924;2023-07-13T07:40:50;101066.81;;;19.18;64.88
69402;BME280;56589;51.992;5.924;2023-07-13T07:43:16;101070.31;;;19.18;64.85
69402;BME280;56589;51.992;5.924;2023-07-13T07:45:44;101070.03;;;19.21;64.95
69402;BME280;56589;51.992;5.924;2023-07-13T07:48:11;101071.06;;;19.38;64.81
69402;BME280;56589;51.992;5.924;2023-07-13T07:50:37;101073.19;;;19.62;64.74
69402;BME280;56589;51.992;5.924;2023-07-13T07:53:06;101069.03;;;19.95;64.37
69402;BME280;56589;51.992;5.924;2023-07-13T07:55:33;101075.94;;;20.24;64.10
69402;BME280;56589;51.992;5.924;2023-07-13T07:58:00;101059.31;;;20.48;63.16
69402;BME280;56589;51.992;5.924;2023-07-13T08:00:26;101066.56;;;20.55;62.45
69402;BME280;56589;51.992;5.924;2023-07-13T08:02:52;101059.53;;;20.54;61.92
69402;BME280;56589;51.992;5.924;2023-07-13T08:05:18;101056.72;;;20.56;62.08
69402;BME280;56589;51.992;5.924;2023-07-13T08:07:44;101059.69;;;20.79;61.90
69402;BME280;56589;51.992;5.924;2023-07-13T08:10:13;101058.84;;;21.04;61.56
69402;BME280;56589;51.992;5.924;2023-07-13T08:12:39;101061.00;;;21.43;61.44
69402;BME280;56589;51.992;5.924;2023-07-13T08:15:10;101061.31;;;21.98;61.00
69402;BME280;56589;51.992;5.924;2023-07-13T08:17:37;101064.31;;;22.52;59.55
69402;BME280;56589;51.992;5.924;2023-07-13T08:20:05;101063.59;;;22.91;58.72
69402;BME280;56589;51.992;5.924;2023-07-13T08:22:31;101063.50;;;23.16;57.67
69402;BME280;56589;51.992;5.924;2023-07-13T08:24:58;101064.13;;;23.26;56.83
69402;BME280;56589;51.992;5.924;2023-07-13T08:27:28;101068.13;;;23.38;56.54
69402;BME280;56589;51.992;5.924;2023-07-13T08:29:55;101068.69;;;23.87;56.77
69402;BME280;56589;51.992;5.924;2023-07-13T08:32:22;101062.31;;;24.49;54.56
69402;BME280;56589;51.992;5.924;2023-07-13T08:34:49;101060.53;;;24.94;53.76
69402;BME280;56589;51.992;5.924;2023-07-13T08:37:16;101063.09;;;25.46;52.81
69402;BME280;56589;51.992;5.924;2023-07-13T08:39:42;101073.19;;;26.02;51.67
69402;BME280;56589;51.992;5.924;2023-07-13T08:42:26;101069.56;;;26.59;50.14
69402;BME280;56589;51.992;5.924;2023-07-13T08:45:08;101069.28;;;26.75;48.33
69402;BME280;56589;51.992;5.924;2023-07-13T08:47:46;101060.31;;;26.40;47.62
69402;BME280;56589;51.992;5.924;2023-07-13T08:50:18;101052.78;;;26.08;47.76
69402;BME280;56589;51.992;5.924;2023-07-13T08:52:49;101052.94;;;25.63;48.03
69402;BME280;56589;51.992;5.924;2023-07-13T08:55:20;101059.44;;;25.03;47.63
69402;BME280;56589;51.992;5.924;2023-07-13T08:57:56;101059.31;;;24.29;48.41
69402;BME280;56589;51.992;5.924;2023-07-13T09:00:44;101053.91;;;23.60;49.81
69402;BME280;56589;51.992;5.924;2023-07-13T09:03:20;101055.34;;;23.09;50.80
69402;BME280;56589;51.992;5.924;2023-07-13T09:05:53;101054.09;;;22.72;51.14
69402;BME280;56589;51.992;5.924;2023-07-13T09:08:38;101045.91;;;22.49;51.72
69402;BME280;56589;51.992;5.924;2023-07-13T09:11:35;101047.34;;;22.93;53.22
69402;BME280;56589;51.992;5.924;2023-07-13T09:14:34;101053.28;;;24.04;51.75
69402;BME280;56589;51.992;5.924;2023-07-13T09:17:14;101049.59;;;25.10;49.59
69402;BME280;56589;51.992;5.924;2023-07-13T09:19:46;101067.50;;;25.39;46.56
69402;BME280;56589;51.992;5.924;2023-07-13T09:22:20;101063.03;;;24.95;46.68
69402;BME280;56589;51.992;5.924;2023-07-13T09:24:54;101055.81;;;24.81;47.76
69402;BME280;56589;51.992;5.924;2023-07-13T09:27:30;101062.00;;;24.82;46.62
69402;BME280;56589;51.992;5.924;2023-07-13T09:30:20;101059.03;;;24.77;46.05
69402;BME280;56589;51.992;5.924;2023-07-13T09:32:52;101052.72;;;24.69;46.89
69402;BME280;56589;51.992;5.924;2023-07-13T09:35:20;101049.63;;;24.58;46.38
69402;BME280;56589;51.992;5.924;2023-07-13T09:37:50;101081.78;;;24.28;46.90
69402;BME280;56589;51.992;5.924;2023-07-13T09:40:24;101083.47;;;23.52;49.28
69402;BME280;56589;51.992;5.924;2023-07-13T09:42:54;101087.91;;;22.49;51.50
69402;BME280;56589;51.992;5.924;2023-07-13T09:45:32;101081.63;;;21.67;53.55
69402;BME280;56589;51.992;5.924;2023-07-13T09:48:02;101089.63;;;21.16;54.24
69402;BME280;56589;51.992;5.924;2023-07-13T09:50:30;101088.63;;;20.91;55.44
69402;BME280;56589;51.992;5.924;2023-07-13T09:52:56;101093.97;;;20.91;56.08
69402;BME280;56589;51.992;5.924;2023-07-13T09:55:24;101091.19;;;21.01;56.85
69402;BME280;56589;51.992;5.924;2023-07-13T09:57:52;101096.28;;;21.12;57.67
69402;BME280;56589;51.992;5.924;2023-07-13T10:00:22;101088.13;;;21.22;57.05
69402;BME280;56589;51.992;5.924;2023-07-13T10:03:02;101091.03;;;21.29;57.87
69402;BME280;56589;51.992;5.924;2023-07-13T10:05:41;101094.03;;;21.34;57.40
69402;BME280;56589;51.992;5.924;2023-07-13T10:08:17;101099.38;;;21.34;57.48
69402;BME280;56589;51.992;5.924;2023-07-13T10:10:46;101092.06;;;21.44;57.82
69402;BME280;56589;51.992;5.924;2023-07-13T10:13:26;101093.16;;;21.75;57.94
69402;BME280;56589;51.992;5.924;2023-07-13T10:15:55;101094.59;;;22.20;58.31
69402;BME280;56589;51.992;5.924;2023-07-13T10:18:28;101096.38;;;22.93;57.92
69402;BME280;56589;51.992;5.924;2023-07-13T10:21:09;101103.63;;;23.71;56.33
69402;BME280;56589;51.992;5.924;2023-07-13T10:23:38;101105.09;;;24.28;55.39
69402;BME280;56589;51.992;5.924;2023-07-13T10:26:12;101105.28;;;24.87;54.13
69402;BME280;56589;51.992;5.924;2023-07-13T10:28:44;101101.81;;;25.37;52.82
69402;BME280;56589;51.992;5.924;2023-07-13T10:31:14;101104.97;;;25.70;52.22
69402;BME280;56589;51.992;5.924;2023-07-13T10:33:44;101102.25;;;26.07;51.04
69402;BME280;56589;51.992;5.924;2023-07-13T10:36:16;101101.28;;;26.14;48.50
69402;BME280;56589;51.992;5.924;2023-07-13T10:38:48;101103.53;;;25.74;48.80
69402;BME280;56589;51.992;5.924;2023-07-13T10:41:19;101112.41;;;25.24;48.87
69402;BME280;56589;51.992;5.924;2023-07-13T10:43:50;101111.56;;;24.94;49.25
69402;BME280;56589;51.992;5.924;2023-07-13T10:46:20;101117.53;;;24.66;48.58
69402;BME280;56589;51.992;5.924;2023-07-13T10:48:56;101131.94;;;24.28;48.35
69402;BME280;56589;51.992;5.924;2023-07-13T10:51:25;101136.59;;;23.80;49.68
69402;BME280;56589;51.992;5.924;2023-07-13T10:54:17;101133.66;;;23.19;52.85
69402;BME280;56589;51.992;5.924;2023-07-13T10:56:46;101138.59;;;22.58;53.84
69402;BME280;56589;51.992;5.924;2023-07-13T10:59:15;101143.09;;;22.33;56.74
69402;BME280;56589;51.992;5.924;2023-07-13T11:01:52;101141.09;;;22.52;57.59
69402;BME280;56589;51.992;5.924;2023-07-13T11:04:25;101143.78;;;22.76;57.09
69402;BME280;56589;51.992;5.924;2023-07-13T11:06:58;101127.53;;;22.94;57.12
69402;BME280;56589;51.992;5.924;2023-07-13T11:09:37;101123.09;;;23.18;56.29
69402;BME280;56589;51.992;5.924;2023-07-13T11:12:09;101127.09;;;23.38;56.44
69402;BME280;56589;51.992;5.924;2023-07-13T11:15:07;101131.16;;;23.65;55.53
69402;BME280;56589;51.992;5.924;2023-07-13T11:17:47;101127.25;;;23.76;53.93
69402;BME280;56589;51.992;5.924;2023-07-13T11:20:41;101120.88;;;23.77;54.49
69402;BME280;56589;51.992;5.924;2023-07-13T11:23:21;101122.91;;;23.66;53.78
69402;BME280;56589;51.992;5.924;2023-07-13T11:25:53;101118.88;;;23.31;54.15
69402;BME280;56589;51.992;5.924;2023-07-13T11:28:23;101118.13;;;22.98;53.30
69402;BME280;56589;51.992;5.924;2023-07-13T11:31:01;101133.91;;;22.69;54.62
69402;BME280;56589;51.992;5.924;2023-07-13T11:33:51;101133.06;;;22.52;53.95
69402;BME280;56589;51.992;5.924;2023-07-13T11:36:30;101136.06;;;22.49;55.01
69402;BME280;56589;51.992;5.924;2023-07-13T11:39:04;101139.59;;;22.66;55.04
69402;BME280;56589;51.992;5.924;2023-07-13T11:41:44;101138.53;;;23.07;55.17
69402;BME280;56589;51.992;5.924;2023-07-13T11:44:19;101142.63;;;23.43;53.48
69402;BME280;56589;51.992;5.924;2023-07-13T11:46:48;101146.22;;;23.66;51.54
69402;BME280;56589;51.992;5.924;2023-07-13T11:49:16;101148.63;;;23.84;51.45
69402;BME280;56589;51.992;5.924;2023-07-13T11:51:46;101136.31;;;24.06;49.07
69402;BME280;56589;51.992;5.924;2023-07-13T11:54:25;101133.69;;;24.21;49.08
69402;BME280;56589;51.992;5.924;2023-07-13T11:56:55;101137.53;;;24.41;49.02
69402;BME280;56589;51.992;5.924;2023-07-13T11:59:22;101129.00;;;24.60;48.50
69402;BME280;56589;51.992;5.924;2023-07-13T12:01:51;101136.97;;;24.54;47.88
69402;BME280;56589;51.992;5.924;2023-07-13T12:04:22;101125.75;;;24.27;48.57
69402;BME280;56589;51.992;5.924;2023-07-13T12:07:05;101129.41;;;24.03;47.94
69402;BME280;56589;51.992;5.924;2023-07-13T12:09:34;101135.63;;;23.73;48.41
69402;BME280;56589;51.992;5.924;2023-07-13T12:12:00;101133.75;;;23.42;49.17
69402;BME280;56589;51.992;5.924;2023-07-13T12:14:26;101131.31;;;23.16;49.69
69402;BME280;56589;51.992;5.924;2023-07-13T12:16:53;101126.31;;;23.05;50.11
69402;BME280;56589;51.992;5.924;2023-07-13T12:19:23;101132.84;;;23.02;50.43
69402;BME280;56589;51.992;5.924;2023-07-13T12:21:55;101127.97;;;23.14;50.90
69402;BME280;56589;51.992;5.924;2023-07-13T12:24:25;101127.88;;;23.47;51.47
69402;BME280;56589;51.992;5.924;2023-07-13T12:26:54;101136.25;;;23.83;50.28
69402;BME280;56589;51.992;5.924;2023-07-13T12:29:24;101134.22;;;24.16;50.03
69402;BME280;56589;51.992;5.924;2023-07-13T12:31:50;101123.97;;;24.42;49.88
69402;BME280;56589;51.992;5.924;2023-07-13T12:34:18;101122.84;;;24.75;49.74
69402;BME280;56589;51.992;5.924;2023-07-13T12:36:47;101120.28;;;25.11;48.96
69402;BME280;56589;51.992;5.924;2023-07-13T12:39:21;101124.81;;;25.25;47.50
69402;BME280;56589;51.992;5.924;2023-07-13T12:41:52;101133.34;;;25.14;47.15
69402;BME280;56589;51.992;5.924;2023-07-13T12:44:24;101144.19;;;24.91;47.17
69402;BME280;56589;51.992;5.924;2023-07-13T12:46:56;101147.97;;;24.59;46.80
69402;BME280;56589;51.992;5.924;2023-07-13T12:49:28;101155.16;;;24.21;46.56
69402;BME280;56589;51.992;5.924;2023-07-13T12:51:57;101136.31;;;23.75;47.25
69402;BME280;56589;51.992;5.924;2023-07-13T12:54:28;101133.31;;;23.22;47.96
69402;BME280;56589;51.992;5.924;2023-07-13T12:56:57;101143.25;;;22.81;48.44
69402;BME280;56589;51.992;5.924;2023-07-13T12:59:29;101146.78;;;22.49;49.02
69402;BME280;56589;51.992;5.924;2023-07-13T13:01:57;101148.94;;;22.29;49.80